Time;durP1;ratioP1;P1;durP2;ratioP2;P2;SDS_P1;SDS_P2;PMS_P1;PMS_P2;Temp;Humidity;BMP_temperature;BMP_pressure;BME280_temperature;BME280_humidity;BME280_pressure;Samples;Min_cycle;Max_cycle;Signal;HPM_P1;HPM_P2
2022/02/09 00:07:41;;;;;;;8.23;6.43;;;7.90;99.90;;;;;;5081669;28;20194;-47
2022/02/09 00:10:09;;;;;;;5.97;5.40;;;7.90;99.90;;;;;;5080530;28;20223;-49
2022/02/09 00:12:44;;;;;;;6.50;5.90;;;7.80;99.90;;;;;;5081541;28;20252;-50
2022/02/09 00:15:27;;;;;;;7.53;6.30;;;7.90;99.90;;;;;;5081625;28;20276;-49
2022/02/09 01:33:08;;;;;;;5.10;4.65;;;7.70;99.90;;;;;;5080090;28;20564;-48
2022/02/09 01:40:24;;;;;;;5.03;4.53;;;7.90;99.90;;;;;;5080386;28;20199;-50
2022/02/09 01:56:39;;;;;;;6.22;5.05;;;7.90;99.90;;;;;;5079963;28;20562;-48
2022/02/09 01:59:07;;;;;;;6.15;5.40;;;7.90;99.90;;;;;;5079600;28;20198;-49
2022/02/09 02:01:34;;;;;;;7.68;5.63;;;7.90;99.90;;;;;;5079336;28;20233;-55
2022/02/09 02:04:02;;;;;;;7.70;5.88;;;7.90;99.90;;;;;;5079721;28;20236;-49
2022/02/09 02:06:32;;;;;;;6.78;5.75;;;7.90;99.90;;;;;;5079064;28;20194;-46
2022/02/09 02:08:59;;;;;;;10.70;5.82;;;7.90;99.90;;;;;;5079859;28;20245;-47
2022/02/09 02:16:54;;;;;;;6.68;6.00;;;8.00;99.90;;;;;;5079506;28;20195;-49
2022/02/09 02:19:36;;;;;;;5.82;4.75;;;8.00;99.90;;;;;;5079455;28;20209;-49
2022/02/09 02:23:07;;;;;;;6.22;4.93;;;8.00;99.90;;;;;;5079038;28;20235;-55
2022/02/09 02:30:20;;;;;;;6.25;5.38;;;8.10;99.90;;;;;;5079490;28;20202;-50
2022/02/09 02:46:47;;;;;;;7.65;6.70;;;8.20;99.90;;;;;;5082873;28;20199;-46
2022/02/09 03:08:40;;;;;;;6.70;5.90;;;8.20;99.90;;;;;;5082689;28;20195;-54
2022/02/09 03:11:37;;;;;;;10.32;6.20;;;8.20;99.90;;;;;;5082596;28;20530;-52
2022/02/09 03:14:14;;;;;;;9.00;6.35;;;8.20;99.90;;;;;;5082809;28;20203;-51
2022/02/09 03:16:48;;;;;;;8.02;6.47;;;8.20;99.90;;;;;;5081624;28;20462;-54
2022/02/09 03:51:56;;;;;;;9.25;6.38;;;8.10;99.90;;;;;;5081921;28;20260;-51
2022/02/09 03:59:30;;;;;;;8.63;7.40;;;8.10;99.90;;;;;;5081695;28;20199;-51
2022/02/09 04:01:59;;;;;;;9.10;6.95;;;8.10;99.90;;;;;;5081813;28;20256;-48
2022/02/09 04:04:26;;;;;;;7.15;5.65;;;8.00;99.90;;;;;;5081522;28;20529;-50
2022/02/09 04:06:54;;;;;;;8.07;5.85;;;8.00;99.90;;;;;;5081447;28;20187;-46
2022/02/09 04:09:27;;;;;;;9.13;6.55;;;8.00;99.90;;;;;;5081846;28;20195;-51
2022/02/09 04:12:43;;;;;;;7.78;7.03;;;8.00;99.90;;;;;;5081411;28;20218;-51
2022/02/09 04:14:55;;;;;;;7.55;6.60;;;7.90;99.90;;;;;;5074052;28;20201;-54
2022/02/09 04:17:58;;;;;;;11.70;7.00;;;7.90;99.90;;;;;;5081350;28;20202;-52
2022/02/09 04:37:04;;;;;;;8.80;6.68;;;7.90;99.90;;;;;;5081557;28;20425;-47
2022/02/09 04:39:53;;;;;;;12.35;8.68;;;7.90;99.90;;;;;;5080917;28;20240;-47
2022/02/09 04:50:37;;;;;;;9.75;7.93;;;7.90;99.90;;;;;;5081515;28;20227;-47
2022/02/09 04:53:22;;;;;;;10.75;7.68;;;7.90;99.90;;;;;;5081958;28;20252;-50
2022/02/09 04:58:35;;;;;;;11.93;9.70;;;7.80;99.90;;;;;;5080822;28;20207;-48
2022/02/09 05:25:41;;;;;;;14.52;9.95;;;8.00;99.90;;;;;;5079559;28;20199;-46
2022/02/09 05:28:12;;;;;;;18.73;11.57;;;8.00;99.90;;;;;;5080379;28;20264;-48
2022/02/09 05:30:43;;;;;;;12.38;9.90;;;8.10;99.90;;;;;;5079696;28;20224;-49
2022/02/09 05:33:10;;;;;;;14.30;11.00;;;8.00;99.90;;;;;;5079899;28;20199;-52
2022/02/09 05:35:38;;;;;;;15.15;9.95;;;8.10;99.90;;;;;;5079919;28;20207;-51
2022/02/09 05:38:06;;;;;;;12.90;9.75;;;8.10;99.90;;;;;;5079922;28;20399;-51
2022/02/09 05:40:34;;;;;;;14.20;8.75;;;8.10;99.90;;;;;;5079446;28;20225;-49
2022/02/09 05:43:01;;;;;;;10.80;9.35;;;8.10;99.90;;;;;;5079487;28;20257;-51
2022/02/09 05:45:53;;;;;;;11.38;7.53;;;8.10;99.90;;;;;;5080285;28;20382;-46
2022/02/09 05:51:11;;;;;;;11.40;6.05;;;8.00;99.90;;;;;;5079695;28;20215;-49
2022/02/09 05:56:31;;;;;;;8.57;6.65;;;8.00;99.90;;;;;;5082407;28;20199;-53
2022/02/09 05:59:05;;;;;;;10.23;6.15;;;8.00;99.90;;;;;;5082690;28;20261;-53
2022/02/09 06:01:33;;;;;;;11.60;7.22;;;8.10;99.90;;;;;;5080333;28;20252;-51
2022/02/09 06:04:01;;;;;;;6.88;5.70;;;8.10;99.90;;;;;;5080783;28;20359;-48
2022/02/09 06:06:29;;;;;;;6.53;5.72;;;8.10;99.90;;;;;;5079546;28;20516;-50
2022/02/09 06:08:57;;;;;;;10.20;5.75;;;8.10;99.90;;;;;;5079847;28;20217;-53
2022/02/09 06:14:13;;;;;;;8.55;5.32;;;8.10;99.90;;;;;;5079462;28;20250;-55
2022/02/09 06:21:59;;;;;;;7.90;5.25;;;8.10;99.90;;;;;;5078842;28;20226;-53
2022/02/09 06:24:26;;;;;;;8.00;6.05;;;8.10;99.90;;;;;;5079007;28;20579;-51
2022/02/09 06:26:54;;;;;;;11.82;7.05;;;8.20;99.90;;;;;;5079151;28;20241;-50
2022/02/09 06:29:22;;;;;;;5.78;5.28;;;8.10;99.90;;;;;;5079104;28;20195;-51
2022/02/09 06:31:51;;;;;;;7.53;6.63;;;8.10;99.90;;;;;;5078946;28;20256;-49
2022/02/09 06:34:21;;;;;;;5.75;5.22;;;8.20;99.90;;;;;;5078590;28;20203;-50
2022/02/09 06:36:56;;;;;;;5.43;4.75;;;8.20;99.90;;;;;;5079216;28;20505;-52
2022/02/09 06:39:25;;;;;;;6.80;5.93;;;8.20;99.90;;;;;;5078883;28;20204;-53
2022/02/09 06:41:53;;;;;;;9.00;5.40;;;8.20;99.90;;;;;;5079046;28;20268;-52
2022/02/09 06:44:21;;;;;;;6.30;5.30;;;8.20;99.90;;;;;;5078819;28;20256;-52
2022/02/09 06:46:48;;;;;;;4.70;4.30;;;8.30;99.90;;;;;;5078089;28;20199;-51
2022/02/09 06:49:18;;;;;;;8.25;5.10;;;8.30;99.90;;;;;;5079266;28;20331;-51
2022/02/09 06:51:47;;;;;;;5.40;4.70;;;8.40;99.90;;;;;;5080729;28;20599;-50
2022/02/09 06:54:23;;;;;;;7.95;5.05;;;8.40;99.90;;;;;;5084627;28;20199;-46
2022/02/09 06:59:30;;;;;;;4.70;4.10;;;8.60;99.90;;;;;;5078906;28;20325;-49
2022/02/09 07:02:05;;;;;;;8.85;5.38;;;8.70;99.90;;;;;;5074898;28;20221;-46
2022/02/09 07:04:37;;;;;;;7.32;5.63;;;8.80;99.90;;;;;;5077326;28;20545;-48
2022/02/09 07:07:08;;;;;;;7.30;5.68;;;8.80;99.90;;;;;;5077884;28;20241;-46
2022/02/09 07:09:36;;;;;;;8.00;7.15;;;8.90;99.90;;;;;;5078060;28;20233;-54
2022/02/09 07:12:06;;;;;;;12.82;5.10;;;8.90;99.90;;;;;;5078199;28;20299;-52
2022/02/09 07:14:34;;;;;;;6.40;5.40;;;9.00;99.90;;;;;;5078643;28;20381;-47
2022/02/09 07:17:02;;;;;;;5.88;5.28;;;9.00;99.90;;;;;;5076983;28;20506;-49
2022/02/09 07:19:32;;;;;;;6.70;5.25;;;9.00;99.90;;;;;;5078243;28;20572;-49
2022/02/09 07:22:06;;;;;;;8.70;6.85;;;9.00;99.90;;;;;;5077807;28;20399;-53
2022/02/09 07:24:34;;;;;;;6.35;5.55;;;9.10;99.90;;;;;;5078452;28;20596;-52
2022/02/09 07:27:24;;;;;;;7.53;5.75;;;9.10;99.90;;;;;;5078323;28;20195;-47
2022/02/09 07:29:49;;;;;;;6.78;5.13;;;9.10;99.90;;;;;;5082235;28;20195;-50
2022/02/09 07:32:18;;;;;;;7.25;5.05;;;9.20;99.90;;;;;;5081592;28;20541;-46
2022/02/09 07:34:52;;;;;;;7.15;5.75;;;9.30;99.90;;;;;;5082473;28;20208;-49
2022/02/09 07:37:24;;;;;;;7.30;6.03;;;9.40;99.90;;;;;;5081711;28;20203;-53
2022/02/09 07:39:52;;;;;;;6.93;5.47;;;9.60;99.90;;;;;;5081155;28;20205;-46
2022/02/09 07:42:26;;;;;;;5.10;4.60;;;9.70;99.90;;;;;;5080240;28;20219;-49
2022/02/09 07:45:06;;;;;;;5.53;4.05;;;9.80;99.90;;;;;;5080787;28;20223;-47
2022/02/09 07:47:48;;;;;;;6.50;5.10;;;9.80;99.90;;;;;;5080453;28;20426;-47
2022/02/09 07:50:43;;;;;;;5.63;4.53;;;9.80;99.90;;;;;;5077569;28;20400;-53
2022/02/09 07:53:23;;;;;;;4.80;4.30;;;9.90;99.90;;;;;;5080778;28;20199;-51
2022/02/09 07:55:53;;;;;;;7.57;4.60;;;9.90;99.90;;;;;;5079665;28;20281;-54
2022/02/09 07:58:20;;;;;;;5.00;4.60;;;10.00;99.90;;;;;;5080753;28;20242;-51
2022/02/09 08:00:53;;;;;;;4.72;4.20;;;9.90;99.90;;;;;;5080331;28;20220;-51
2022/02/09 08:03:22;;;;;;;6.03;4.47;;;9.80;99.90;;;;;;5077499;28;20280;-51
2022/02/09 08:05:50;;;;;;;8.43;4.07;;;9.90;99.90;;;;;;5079890;28;20188;-46
2022/02/09 08:08:20;;;;;;;3.85;3.45;;;9.90;99.90;;;;;;5080126;28;20256;-48
2022/02/09 08:10:50;;;;;;;6.22;4.65;;;10.00;99.90;;;;;;5063874;28;20279;-46
2022/02/09 08:35:19;;;;;;;3.88;3.47;;;10.40;99.90;;;;;;5079535;28;20216;-46
2022/02/09 08:37:48;;;;;;;3.65;3.35;;;10.40;99.90;;;;;;5080204;28;20574;-46
2022/02/09 08:40:21;;;;;;;4.30;3.72;;;10.50;99.90;;;;;;5077257;28;20201;-50
2022/02/09 08:42:49;;;;;;;7.38;4.60;;;10.60;99.90;;;;;;5080577;28;20306;-52
2022/02/09 08:45:18;;;;;;;5.82;4.72;;;10.70;99.90;;;;;;5081392;28;20225;-57
2022/02/09 08:47:57;;;;;;;2.90;2.70;;;10.80;99.90;;;;;;5079946;28;20595;-54
2022/02/09 08:50:25;;;;;;;3.38;3.05;;;10.90;99.90;;;;;;5079836;28;20621;-47
2022/02/09 08:52:55;;;;;;;3.40;3.20;;;10.90;99.90;;;;;;5080096;28;20208;-50
2022/02/09 08:55:24;;;;;;;6.18;4.32;;;10.90;99.90;;;;;;5078187;28;20537;-52
2022/02/09 08:57:52;;;;;;;3.28;2.97;;;10.90;99.90;;;;;;5078413;28;20258;-46
2022/02/09 09:00:30;;;;;;;3.58;3.20;;;11.00;99.90;;;;;;5079086;28;20206;-50
2022/02/09 09:05:41;;;;;;;4.03;3.47;;;10.80;99.90;;;;;;5067691;28;20198;-49
2022/02/09 10:34:17;;;;;;;1.92;1.83;;;10.10;99.90;;;;;;5079338;28;20237;-52
2022/02/09 10:36:55;;;;;;;3.33;2.60;;;10.00;99.90;;;;;;5078910;28;20203;-54
2022/02/09 10:39:34;;;;;;;1.85;1.75;;;10.00;99.90;;;;;;5078540;28;20198;-53
2022/02/09 10:42:38;;;;;;;1.70;1.60;;;9.90;99.90;;;;;;5077922;28;20289;-55
2022/02/09 10:45:19;;;;;;;2.22;2.08;;;9.80;99.90;;;;;;5077152;28;20242;-54
2022/02/09 10:47:47;;;;;;;3.50;2.72;;;9.80;99.90;;;;;;5078927;28;20207;-54
2022/02/09 10:50:29;;;;;;;3.47;3.17;;;9.90;99.90;;;;;;5078457;28;20383;-55
2022/02/09 10:52:59;;;;;;;3.28;2.97;;;9.90;99.90;;;;;;5079244;28;20573;-53
2022/02/09 10:55:34;;;;;;;3.60;3.30;;;10.00;99.90;;;;;;5078630;28;20403;-52
2022/02/09 10:58:26;;;;;;;3.47;3.17;;;10.00;99.90;;;;;;5078820;28;20200;-52
2022/02/09 11:00:53;;;;;;;4.25;3.85;;;10.20;99.90;;;;;;5078445;28;20199;-51
2022/02/09 11:03:28;;;;;;;3.78;3.42;;;10.10;99.90;;;;;;5080308;28;20365;-55
2022/02/09 11:05:55;;;;;;;4.10;3.80;;;10.20;99.90;;;;;;5082664;28;20228;-53
2022/02/09 11:08:24;;;;;;;3.88;3.47;;;10.40;99.90;;;;;;5082595;28;20328;-52
2022/02/09 11:10:55;;;;;;;4.80;3.85;;;10.40;99.90;;;;;;5082328;28;20198;-50
2022/02/09 11:13:23;;;;;;;4.25;3.35;;;10.50;99.90;;;;;;5082538;28;20235;-53
2022/02/09 11:15:54;;;;;;;4.22;3.70;;;10.60;99.90;;;;;;5081853;28;20255;-55
2022/02/09 11:18:24;;;;;;;3.20;2.92;;;10.50;99.90;;;;;;5082322;28;20224;-53
2022/02/09 11:21:06;;;;;;;3.85;3.33;;;10.60;99.90;;;;;;5081221;28;20231;-51
2022/02/09 11:24:09;;;;;;;3.65;3.35;;;10.60;99.90;;;;;;5081899;28;20228;-53
2022/02/09 11:27:10;;;;;;;3.17;2.88;;;10.80;99.90;;;;;;5082662;28;20206;-52
2022/02/09 11:29:50;;;;;;;2.85;2.65;;;11.00;99.90;;;;;;5081760;28;20209;-53
2022/02/09 11:32:40;;;;;;;3.25;2.95;;;11.00;99.90;;;;;;5082925;28;20223;-52
2022/02/09 11:35:21;;;;;;;3.33;3.03;;;11.20;99.90;;;;;;5082934;28;20210;-56
2022/02/09 11:41:02;;;;;;;6.88;6.25;;;11.50;99.90;;;;;;5082249;28;20288;-54
2022/02/09 11:57:49;;;;;;;3.28;2.97;;;11.30;99.90;;;;;;5083136;28;20396;-53
2022/02/09 12:09:52;;;;;;;3.47;2.63;;;11.10;99.90;;;;;;5081479;28;20201;-55
2022/02/09 12:12:38;;;;;;;1.95;1.85;;;10.90;99.90;;;;;;5080912;28;20282;-57
2022/02/09 12:20:25;;;;;;;1.98;1.80;;;10.60;99.90;;;;;;5081650;28;20209;-54
2022/02/09 12:25:43;;;;;;;4.40;3.10;;;10.50;99.90;;;;;;5082312;28;20224;-56
2022/02/09 12:28:31;;;;;;;2.08;1.98;;;10.40;99.90;;;;;;5082401;28;20205;-54
2022/02/09 12:31:11;;;;;;;2.35;2.15;;;10.30;99.90;;;;;;5082126;28;20291;-56
2022/02/09 12:33:44;;;;;;;1.63;1.52;;;10.40;99.90;;;;;;5081637;28;20201;-53
2022/02/09 12:36:18;;;;;;;2.10;1.90;;;10.40;99.90;;;;;;5080978;28;20207;-54
2022/02/09 12:38:47;;;;;;;5.25;3.03;;;10.40;99.90;;;;;;5081586;28;20301;-49
2022/02/09 12:41:16;;;;;;;2.00;1.90;;;10.60;99.90;;;;;;5081039;28;20209;-55
2022/02/09 12:44:07;;;;;;;2.45;2.25;;;10.50;99.90;;;;;;5081485;28;20202;-54
2022/02/09 12:46:43;;;;;;;3.85;2.17;;;10.60;99.90;;;;;;5081014;28;20193;-53
2022/02/09 12:49:14;;;;;;;2.08;1.70;;;10.60;99.90;;;;;;5081452;28;20224;-51
2022/02/09 12:51:47;;;;;;;2.38;2.17;;;10.60;99.90;;;;;;5080775;28;20259;-55
2022/02/09 12:54:19;;;;;;;2.60;2.40;;;10.50;99.90;;;;;;5080763;28;20246;-52
2022/02/09 12:56:50;;;;;;;1.85;1.75;;;10.50;99.90;;;;;;5081081;28;20196;-55
2022/02/09 12:59:19;;;;;;;1.90;1.80;;;10.40;99.90;;;;;;5080919;28;20229;-55
2022/02/09 13:01:56;;;;;;;5.50;2.05;;;10.50;99.90;;;;;;5081156;28;20216;-56
2022/02/09 13:04:35;;;;;;;1.58;1.25;;;10.40;99.90;;;;;;5080216;28;20224;-54
2022/02/09 13:07:15;;;;;;;3.38;2.50;;;10.40;99.90;;;;;;5081088;28;20201;-53
2022/02/09 13:09:49;;;;;;;2.47;2.30;;;10.30;99.90;;;;;;5080698;28;20275;-52
2022/02/09 13:12:28;;;;;;;2.30;2.08;;;10.20;99.90;;;;;;5080340;28;20217;-52
2022/02/09 13:15:05;;;;;;;4.28;2.53;;;10.10;99.90;;;;;;5080531;28;20512;-50
2022/02/09 13:23:50;;;;;;;2.13;1.75;;;10.00;99.90;;;;;;5080003;28;20207;-54
2022/02/09 13:54:22;;;;;;;2.70;2.10;;;10.00;99.90;;;;;;5080240;28;20217;-55
2022/02/09 14:13:32;;;;;;;7.80;2.95;;;10.50;99.90;;;;;;5079322;28;20226;-51
2022/02/09 14:18:58;;;;;;;3.50;3.00;;;10.50;99.90;;;;;;5080482;28;20201;-51
2022/02/09 14:51:57;;;;;;;5.50;2.85;;;10.10;99.90;;;;;;5069775;28;20266;-55
2022/02/09 14:57:08;;;;;;;5.20;3.63;;;10.00;99.90;;;;;;5081957;28;20251;-52
2022/02/09 15:02:24;;;;;;;3.45;3.15;;;10.00;99.90;;;;;;5082875;28;20210;-51
2022/02/09 15:10:18;;;;;;;5.55;3.65;;;9.90;99.90;;;;;;5083001;28;20196;-51
2022/02/09 15:13:16;;;;;;;4.80;3.95;;;9.90;99.90;;;;;;5082819;28;20217;-52
2022/02/09 15:16:10;;;;;;;6.68;3.65;;;9.90;99.90;;;;;;5083839;28;20543;-54
2022/02/09 15:24:12;;;;;;;7.45;4.47;;;9.70;99.90;;;;;;5075011;28;20211;-51
2022/02/09 15:26:41;;;;;;;5.15;4.63;;;9.50;99.90;;;;;;5077816;28;20239;-51
2022/02/09 15:29:10;;;;;;;5.20;4.70;;;9.60;99.90;;;;;;5079961;28;20210;-49
2022/02/09 15:31:47;;;;;;;7.93;4.90;;;9.60;99.90;;;;;;5075041;28;20454;-53
2022/02/09 15:34:28;;;;;;;6.22;5.63;;;9.70;99.90;;;;;;5070795;28;20197;-55
2022/02/09 15:37:06;;;;;;;6.53;5.50;;;9.50;99.90;;;;;;5090632;28;20514;-53
2022/02/09 15:39:41;;;;;;;8.55;5.90;;;9.40;99.90;;;;;;5101772;28;20214;-54
2022/02/09 15:56:20;;;;;;;8.32;6.05;;;9.20;99.90;;;;;;5081537;28;20201;-54
2022/02/09 16:21:39;;;;;;;9.48;7.13;;;8.90;99.90;;;;;;5080057;28;20221;-58
2022/02/09 16:23:23;;;;;;;7.13;6.43;;;8.90;99.90;;;;;;5087714;22;20231;-48
2022/02/09 16:26:00;;;;;;;8.35;5.75;;;8.90;99.90;;;;;;5071503;28;20236;-47
2022/02/09 16:34:27;;;;;;;7.95;6.57;;;9.00;99.90;;;;;;5056830;28;20267;-52
2022/02/09 16:37:21;;;;;;;8.88;5.90;;;9.00;99.90;;;;;;5057346;28;20217;-47
2022/02/09 16:45:30;;;;;;;10.82;6.93;;;9.10;99.90;;;;;;5055107;28;20223;-51
2022/02/09 16:48:03;;;;;;;11.77;7.60;;;9.10;99.90;;;;;;5052613;28;20206;-50
2022/02/09 16:50:38;;;;;;;11.07;6.28;;;9.10;99.90;;;;;;5057475;28;20290;-51
2022/02/09 16:53:36;;;;;;;6.28;5.63;;;9.30;99.90;;;;;;5057597;28;20223;-50
2022/02/09 17:15:41;;;;;;;9.05;8.13;;;8.90;99.90;;;;;;5057155;28;20269;-50
2022/02/09 17:20:55;;;;;;;9.23;7.25;;;9.00;99.90;;;;;;5056004;28;20237;-50
2022/02/09 17:23:23;;;;;;;10.30;7.32;;;8.80;99.90;;;;;;5056688;28;20230;-51
2022/02/09 17:25:50;;;;;;;10.27;8.05;;;8.80;99.90;;;;;;5055540;28;20223;-48
2022/02/09 17:28:18;;;;;;;11.75;7.20;;;8.80;99.90;;;;;;5051009;28;20543;-52
2022/02/09 17:39:03;;;;;;;7.03;6.03;;;8.80;99.90;;;;;;5053936;28;20207;-47
2022/02/09 17:57:54;;;;;;;8.90;5.88;;;9.00;99.90;;;;;;5054446;28;20234;-47
2022/02/09 18:00:22;;;;;;;10.15;6.10;;;8.90;99.90;;;;;;5049209;28;20297;-51
2022/02/09 18:02:53;;;;;;;9.48;7.13;;;8.90;99.90;;;;;;5055109;28;20232;-46
2022/02/09 18:05:34;;;;;;;9.40;7.15;;;8.90;99.90;;;;;;5050059;28;20195;-51
2022/02/09 18:08:06;;;;;;;8.38;6.40;;;8.80;99.90;;;;;;5055278;28;20225;-50
2022/02/09 18:27:43;;;;;;;9.15;5.72;;;8.70;99.90;;;;;;5055813;28;20284;-54
2022/02/09 18:29:28;;;;;;;15.18;7.75;;;8.80;99.90;;;;;;5050469;28;20233;-46
2022/02/09 18:37:45;;;;;;;8.13;7.18;;;8.70;99.90;;;;;;5055295;28;20262;-51
2022/02/09 18:43:08;;;;;;;10.68;6.47;;;8.70;99.90;;;;;;5054080;28;20220;-49
2022/02/09 18:45:43;;;;;;;10.15;7.85;;;8.60;99.90;;;;;;5054221;28;20214;-50
2022/02/09 19:04:14;;;;;;;14.00;8.55;;;8.70;99.90;;;;;;5036792;28;20212;-49
2022/02/09 19:15:22;;;;;;;13.95;9.60;;;8.70;99.90;;;;;;5038819;28;20557;-48
2022/02/09 19:17:54;;;;;;;8.95;7.00;;;8.60;99.90;;;;;;5038750;28;20200;-51
2022/02/09 19:45:40;;;;;;;12.32;8.90;;;8.60;99.90;;;;;;5023405;28;20507;-46
2022/02/09 19:50:49;;;;;;;14.10;7.55;;;8.60;99.90;;;;;;5041880;28;20197;-49
2022/02/09 19:55:53;;;;;;;11.07;7.97;;;8.80;99.90;;;;;;5051412;28;20500;-46
2022/02/09 19:58:22;;;;;;;13.13;7.47;;;8.90;99.90;;;;;;5051476;28;20212;-49
2022/02/09 20:00:56;;;;;;;9.75;7.47;;;8.80;99.90;;;;;;5046403;28;20204;-52
2022/02/09 20:03:23;;;;;;;9.52;7.57;;;8.70;99.90;;;;;;5044231;28;20219;-48
2022/02/09 20:05:51;;;;;;;9.13;6.80;;;8.70;99.90;;;;;;5044147;28;20315;-48
2022/02/09 20:08:18;;;;;;;8.35;6.30;;;8.60;99.90;;;;;;5050430;28;20402;-49
2022/02/09 20:10:45;;;;;;;13.57;8.02;;;8.60;99.90;;;;;;5047910;28;20223;-49
2022/02/09 20:13:12;;;;;;;9.20;6.80;;;8.50;99.90;;;;;;5050102;28;20220;-49
2022/02/09 20:15:39;;;;;;;11.88;7.25;;;8.60;99.90;;;;;;5049038;28;20195;-51
2022/02/09 20:18:06;;;;;;;9.68;7.15;;;8.60;99.90;;;;;;5048552;28;20546;-49
2022/02/09 20:20:36;;;;;;;18.17;8.65;;;8.50;99.90;;;;;;5049392;28;20288;-49
2022/02/09 20:23:05;;;;;;;14.80;7.30;;;8.40;99.90;;;;;;5048045;28;20286;-47
2022/02/09 20:25:32;;;;;;;11.93;7.78;;;8.40;99.90;;;;;;5048708;28;20294;-49
2022/02/09 20:28:00;;;;;;;9.25;6.65;;;8.50;99.90;;;;;;5047217;28;20231;-48
2022/02/09 20:30:34;;;;;;;10.38;7.75;;;8.50;99.90;;;;;;5046986;28;20491;-46
2022/02/09 20:33:06;;;;;;;6.57;5.93;;;8.50;99.90;;;;;;5046972;28;20460;-47
2022/02/09 20:35:34;;;;;;;10.30;7.78;;;8.50;99.90;;;;;;5047307;28;20196;-49
2022/02/09 20:38:02;;;;;;;7.82;6.45;;;8.50;99.90;;;;;;5047476;28;20212;-49
2022/02/09 20:40:47;;;;;;;12.88;7.40;;;8.50;99.90;;;;;;5048955;28;20200;-47
2022/02/09 20:43:16;;;;;;;6.85;6.15;;;8.60;99.90;;;;;;5048753;28;20243;-49
2022/02/09 20:45:52;;;;;;;11.90;7.38;;;8.60;99.90;;;;;;5047743;28;20200;-44
2022/02/09 20:48:24;;;;;;;10.77;6.15;;;8.60;99.90;;;;;;5042992;28;20386;-49
2022/02/09 20:50:57;;;;;;;11.65;6.95;;;8.80;99.90;;;;;;5049476;28;20197;-50
2022/02/09 20:53:25;;;;;;;7.40;6.60;;;8.80;99.90;;;;;;5049021;28;20225;-50
2022/02/09 20:55:56;;;;;;;9.27;6.97;;;8.80;99.90;;;;;;5046945;28;20203;-46
2022/02/09 20:58:24;;;;;;;9.35;7.00;;;8.80;99.90;;;;;;5049337;28;20199;-48
2022/02/09 21:00:59;;;;;;;10.25;6.53;;;8.80;99.90;;;;;;5044703;28;20208;-53
2022/02/09 21:06:13;;;;;;;14.07;7.18;;;8.80;99.90;;;;;;5054026;28;20208;-50
2022/02/09 21:14:11;;;;;;;10.68;7.22;;;8.60;99.90;;;;;;5052838;28;20194;-51
2022/02/09 21:22:32;;;;;;;12.73;9.57;;;8.70;99.90;;;;;;5058028;28;20490;-49
2022/02/09 21:54:50;;;;;;;9.85;7.00;;;9.20;99.90;;;;;;5039988;28;20205;-47
2022/02/09 21:57:32;;;;;;;9.75;7.15;;;9.10;99.90;;;;;;5038130;28;20514;-50
2022/02/09 22:16:44;;;;;;;10.90;7.78;;;8.90;99.90;;;;;;5054620;28;20200;-47
2022/02/09 22:22:15;;;;;;;9.35;6.70;;;8.90;99.90;;;;;;5078721;22;20246;-49
2022/02/09 22:27:52;;;;;;;11.65;7.13;;;8.80;99.90;;;;;;5035189;28;20236;-52
2022/02/09 22:55:37;;;;;;;6.93;6.30;;;8.90;99.90;;;;;;5058415;28;20201;-51
2022/02/09 22:58:06;;;;;;;7.80;6.55;;;8.90;99.90;;;;;;5059601;28;20368;-54
2022/02/09 23:00:56;;;;;;;10.48;6.63;;;8.80;99.90;;;;;;5061249;28;20437;-54
2022/02/09 23:03:46;;;;;;;10.82;6.72;;;9.00;99.90;;;;;;5063084;28;20224;-52
2022/02/09 23:53:51;;;;;;;7.10;5.43;;;9.20;99.90;;;;;;5061506;28;20221;-53
2022/02/09 23:56:49;;;;;;;8.60;5.90;;;9.10;99.90;;;;;;5060600;28;20581;-55
